Ag Nektarios Aiginas — SX7083 — position and weather

sailwx.info

Track history (hours):
 
Tides and Currents Weather Stations Pressure Air Temp Water Temp Dewpoint Dewpoint Depression Visibility Wind Speed Wind Dir Waves Ship Positions

Ag Nektarios Aiginas

Last reported at 2016-Dec-01 17:33 UTC. Time now 2016-Dec-04 22:30 UTC.
Position N 37°54' E 023°35'.

Length 75 m; draft 2.7 m.

Type: Passenger vessel. MMSI: 237021400.

Date/timePositionNaut miles runAvg speedWind from/ knotsBaromVisibWave heightAir tempDewpointWater temp
2016-Dec-01 17:33N 37°54' E 023°35'1212.4
2016-Dec-01 16:34N 37°45' E 023°25'2 1.7
2016-Dec-01 15:33N 37°46' E 023°25'1312.9
2016-Dec-01 14:33N 37°56' E 023°37'0 0.4
2016-Dec-01 13:34N 37°55' E 023°36'1312.8
2016-Dec-01 12:33N 37°46' E 023°25'0 0.2
2016-Dec-01 11:32N 37°46' E 023°25'1212.3
2016-Dec-01 10:34N 37°54' E 023°36'1 1.5
2016-Dec-01 09:34N 37°56' E 023°37'1312.8
2016-Dec-01 08:34N 37°46' E 023°26'2 2.0
2016-Dec-01 07:34N 37°48' E 023°28'1311.5
2016-Dec-01 06:28N 37°57' E 023°39'0 0.0
2016-Nov-30 18:17N 37°57' E 023°39'4 5.0
2016-Nov-30 17:34N 37°54' E 023°35'1212.3
2016-Nov-30 16:34N 37°45' E 023°25'1 1.5
2016-Nov-30 15:33N 37°46' E 023°25'1212.3
2016-Nov-30 14:33N 37°55' E 023°36'1 1.2
2016-Nov-30 13:33N 37°56' E 023°37'1312.9
2016-Nov-30 12:33N 37°47' E 023°26'2 1.9
2016-Nov-30 11:33N 37°45' E 023°25'1313.1
2016-Nov-30 10:33N 37°55' E 023°36'1 0.8
2016-Nov-30 09:33N 37°55' E 023°36'1312.6
2016-Nov-30 08:33N 37°46' E 023°25'3 2.7
2016-Nov-30 07:33N 37°48' E 023°28'1211.9
2016-Nov-30 06:33N 37°57' E 023°38'0 0.0
2016-Nov-29 18:06N 37°57' E 023°38'2 3.4
2016-Nov-29 17:34N 37°55' E 023°37'1212.4
2016-Nov-29 16:34N 37°47' E 023°26'2 2.1
2016-Nov-29 15:33N 37°45' E 023°25'1312.6
2016-Nov-29 14:34N 37°54' E 023°36'1 1.0
2016-Nov-29 13:33N 37°55' E 023°36'1212.3
2016-Nov-29 12:34N 37°46' E 023°25'1 1.5
2016-Nov-29 11:33N 37°45' E 023°25'1312.9
2016-Nov-29 10:33N 37°55' E 023°36'2 1.6
2016-Nov-29 09:34N 37°53' E 023°34'1111.0
2016-Nov-29 08:33N 37°45' E 023°25'3 3.2
2016-Nov-29 07:34N 37°47' E 023°27'1312.7
2016-Nov-29 06:33N 37°57' E 023°38'0 0.0
2016-Nov-28 18:15N 37°57' E 023°39'2 2.2
2016-Nov-28 17:34N 37°56' E 023°37'1312.7
2016-Nov-28 16:34N 37°47' E 023°26'2 1.9
2016-Nov-28 15:34N 37°45' E 023°25'1312.8
2016-Nov-28 14:33N 37°54' E 023°36'1 1.4
2016-Nov-28 13:33N 37°56' E 023°37'1312.6
2016-Nov-28 12:33N 37°47' E 023°26'2 2.0
2016-Nov-28 11:33N 37°45' E 023°25'1313.2
2016-Nov-28 10:34N 37°55' E 023°36'1 1.4
2016-Nov-28 09:33N 37°56' E 023°37'1212.5
2016-Nov-28 08:33N 37°47' E 023°26'2 2.0
2016-Nov-28 07:32N 37°48' E 023°28'1212.3
2016-Nov-28 06:33N 37°57' E 023°39'1 0.1
2016-Nov-27 17:33N 37°56' E 023°37'1313.0
2016-Nov-27 16:33N 37°47' E 023°26'3 2.5
2016-Nov-27 15:33N 37°45' E 023°25'1312.7
2016-Nov-27 14:33N 37°54' E 023°35'2 2.3
2016-Nov-27 13:33N 37°56' E 023°37'1312.8
2016-Nov-27 12:33N 37°47' E 023°26'2 1.7
2016-Nov-27 11:33N 37°45' E 023°25'1212.5
2016-Nov-27 10:33N 37°55' E 023°35'1 1.5
2016-Nov-27 09:33N 37°56' E 023°37'1212.2
2016-Nov-27 08:34N 37°47' E 023°26'1 1.0
2016-Nov-27 07:33N 37°47' E 023°27'1312.7
2016-Nov-27 06:34N 37°57' E 023°38'1 0.0
2016-Nov-26 17:33N 37°56' E 023°38'1313.1
2016-Nov-26 16:33N 37°47' E 023°26'2 2.3
2016-Nov-26 15:33N 37°45' E 023°25'1312.7
2016-Nov-26 14:33N 37°54' E 023°36'3 3.0
2016-Nov-26 13:33N 37°56' E 023°38'1313.0
2016-Nov-26 12:33N 37°47' E 023°27'3 2.7
2016-Nov-26 11:33N 37°45' E 023°25'1313.0
2016-Nov-26 10:33N 37°55' E 023°35'2 1.6
2016-Nov-26 09:33N 37°56' E 023°37'1313.4
2016-Nov-26 08:33N 37°46' E 023°25'2 2.1
2016-Nov-26 07:33N 37°48' E 023°27'1312.2
2016-Nov-26 06:31N 37°57' E 023°38'2 0.1
2016-Nov-25 17:33N 37°56' E 023°37'1312.8
2016-Nov-25 16:33N 37°47' E 023°26'2 2.1
2016-Nov-25 15:33N 37°45' E 023°25'1312.8
2016-Nov-25 14:33N 37°54' E 023°36'3 2.6
2016-Nov-25 13:33N 37°56' E 023°38'1313.0
2016-Nov-25 12:33N 37°47' E 023°26'3 2.6
2016-Nov-25 11:33N 37°45' E 023°25'1312.5
2016-Nov-25 10:33N 37°54' E 023°35'0 0.3
2016-Nov-25 09:33N 37°54' E 023°36'1312.6
2016-Nov-25 08:33N 37°45' E 023°25'4 3.8
2016-Nov-25 07:33N 37°48' E 023°28'1211.9
2016-Nov-25 06:33N 37°57' E 023°39'0 0.0
2016-Nov-23 18:03N 37°57' E 023°39'1 2.8
2016-Nov-23 17:33N 37°56' E 023°37'1312.8
2016-Nov-23 16:33N 37°47' E 023°26'2 1.9
2016-Nov-23 15:33N 37°45' E 023°25'1313.0
2016-Nov-23 14:33N 37°55' E 023°36'2 1.9
2016-Nov-23 13:33N 37°56' E 023°37'1313.3
2016-Nov-23 12:33N 37°46' E 023°25'2 1.6
2016-Nov-23 11:33N 37°45' E 023°25'1313.0
2016-Nov-23 10:33N 37°55' E 023°36'1 1.2
2016-Nov-23 09:33N 37°56' E 023°36'1313.3
2016-Nov-23 08:33N 37°46' E 023°25'3 3.4
2016-Nov-23 07:33N 37°48' E 023°29'1211.6
2016-Nov-23 06:33N 37°57' E 023°38'3 0.2
2016-Nov-22 17:33N 37°55' E 023°36'1312.8
2016-Nov-22 16:34N 37°46' E 023°24'1 1.4
2016-Nov-22 15:33N 37°47' E 023°26'1313.3
2016-Nov-22 14:33N 37°56' E 023°37'0 0.4
2016-Nov-22 13:34N 37°56' E 023°37'1 0.3
2016-Nov-22 10:34N 37°55' E 023°36'1 1.0
2016-Nov-22 09:33N 37°56' E 023°37'1313.1
2016-Nov-22 08:34N 37°47' E 023°26'2 1.7
2016-Nov-22 07:34N 37°48' E 023°28'12 1.2
2016-Nov-21 21:33N 37°57' E 023°39'  
Track history (hours):
 
Tides and Currents Weather Stations Pressure Air Temp Water Temp Dewpoint Dewpoint Depression Visibility Wind Speed Wind Dir Waves Ship Positions

Ag Nektarios Aiginas

Last reported at 2016-Dec-01 17:33 UTC. Time now 2016-Dec-04 22:30 UTC.
Position N 37°54' E 023°35'.

Length 75 m; draft 2.7 m.

Type: Passenger vessel. MMSI: 237021400.

Date/timePositionNaut miles runAvg speedWind from/ knotsBaromVisibWave heightAir tempDewpointWater temp
2016-Dec-01 17:33N 37°54' E 023°35'1212.4
2016-Dec-01 16:34N 37°45' E 023°25'2 1.7
2016-Dec-01 15:33N 37°46' E 023°25'1312.9
2016-Dec-01 14:33N 37°56' E 023°37'0 0.4
2016-Dec-01 13:34N 37°55' E 023°36'1312.8
2016-Dec-01 12:33N 37°46' E 023°25'0 0.2
2016-Dec-01 11:32N 37°46' E 023°25'1212.3
2016-Dec-01 10:34N 37°54' E 023°36'1 1.5
2016-Dec-01 09:34N 37°56' E 023°37'1312.8
2016-Dec-01 08:34N 37°46' E 023°26'2 2.0
2016-Dec-01 07:34N 37°48' E 023°28'1311.5
2016-Dec-01 06:28N 37°57' E 023°39'0 0.0
2016-Nov-30 18:17N 37°57' E 023°39'4 5.0
2016-Nov-30 17:34N 37°54' E 023°35'1212.3
2016-Nov-30 16:34N 37°45' E 023°25'1 1.5
2016-Nov-30 15:33N 37°46' E 023°25'1212.3
2016-Nov-30 14:33N 37°55' E 023°36'1 1.2
2016-Nov-30 13:33N 37°56' E 023°37'1312.9
2016-Nov-30 12:33N 37°47' E 023°26'2 1.9
2016-Nov-30 11:33N 37°45' E 023°25'1313.1
2016-Nov-30 10:33N 37°55' E 023°36'1 0.8
2016-Nov-30 09:33N 37°55' E 023°36'1312.6
2016-Nov-30 08:33N 37°46' E 023°25'3 2.7
2016-Nov-30 07:33N 37°48' E 023°28'1211.9
2016-Nov-30 06:33N 37°57' E 023°38'0 0.0
2016-Nov-29 18:06N 37°57' E 023°38'2 3.4
2016-Nov-29 17:34N 37°55' E 023°37'1212.4
2016-Nov-29 16:34N 37°47' E 023°26'2 2.1
2016-Nov-29 15:33N 37°45' E 023°25'1312.6
2016-Nov-29 14:34N 37°54' E 023°36'1 1.0
2016-Nov-29 13:33N 37°55' E 023°36'1212.3
2016-Nov-29 12:34N 37°46' E 023°25'1 1.5
2016-Nov-29 11:33N 37°45' E 023°25'1312.9
2016-Nov-29 10:33N 37°55' E 023°36'2 1.6
2016-Nov-29 09:34N 37°53' E 023°34'1111.0
2016-Nov-29 08:33N 37°45' E 023°25'3 3.2
2016-Nov-29 07:34N 37°47' E 023°27'1312.7
2016-Nov-29 06:33N 37°57' E 023°38'0 0.0
2016-Nov-28 18:15N 37°57' E 023°39'2 2.2
2016-Nov-28 17:34N 37°56' E 023°37'1312.7
2016-Nov-28 16:34N 37°47' E 023°26'2 1.9
2016-Nov-28 15:34N 37°45' E 023°25'1312.8
2016-Nov-28 14:33N 37°54' E 023°36'1 1.4
2016-Nov-28 13:33N 37°56' E 023°37'1312.6
2016-Nov-28 12:33N 37°47' E 023°26'2 2.0
2016-Nov-28 11:33N 37°45' E 023°25'1313.2
2016-Nov-28 10:34N 37°55' E 023°36'1 1.4
2016-Nov-28 09:33N 37°56' E 023°37'1212.5
2016-Nov-28 08:33N 37°47' E 023°26'2 2.0
2016-Nov-28 07:32N 37°48' E 023°28'1212.3
2016-Nov-28 06:33N 37°57' E 023°39'1 0.1
2016-Nov-27 17:33N 37°56' E 023°37'1313.0
2016-Nov-27 16:33N 37°47' E 023°26'3 2.5
2016-Nov-27 15:33N 37°45' E 023°25'1312.7
2016-Nov-27 14:33N 37°54' E 023°35'2 2.3
2016-Nov-27 13:33N 37°56' E 023°37'1312.8
2016-Nov-27 12:33N 37°47' E 023°26'2 1.7
2016-Nov-27 11:33N 37°45' E 023°25'1212.5
2016-Nov-27 10:33N 37°55' E 023°35'1 1.5
2016-Nov-27 09:33N 37°56' E 023°37'1212.2
2016-Nov-27 08:34N 37°47' E 023°26'1 1.0
2016-Nov-27 07:33N 37°47' E 023°27'1312.7
2016-Nov-27 06:34N 37°57' E 023°38'1 0.0
2016-Nov-26 17:33N 37°56' E 023°38'1313.1
2016-Nov-26 16:33N 37°47' E 023°26'2 2.3
2016-Nov-26 15:33N 37°45' E 023°25'1312.7
2016-Nov-26 14:33N 37°54' E 023°36'3 3.0
2016-Nov-26 13:33N 37°56' E 023°38'1313.0
2016-Nov-26 12:33N 37°47' E 023°27'3 2.7
2016-Nov-26 11:33N 37°45' E 023°25'1313.0
2016-Nov-26 10:33N 37°55' E 023°35'2 1.6
2016-Nov-26 09:33N 37°56' E 023°37'1313.4
2016-Nov-26 08:33N 37°46' E 023°25'2 2.1
2016-Nov-26 07:33N 37°48' E 023°27'1312.2
2016-Nov-26 06:31N 37°57' E 023°38'2 0.1
2016-Nov-25 17:33N 37°56' E 023°37'1312.8
2016-Nov-25 16:33N 37°47' E 023°26'2 2.1
2016-Nov-25 15:33N 37°45' E 023°25'1312.8
2016-Nov-25 14:33N 37°54' E 023°36'3 2.6
2016-Nov-25 13:33N 37°56' E 023°38'1313.0
2016-Nov-25 12:33N 37°47' E 023°26'3 2.6
2016-Nov-25 11:33N 37°45' E 023°25'1312.5
2016-Nov-25 10:33N 37°54' E 023°35'0 0.3
2016-Nov-25 09:33N 37°54' E 023°36'1312.6
2016-Nov-25 08:33N 37°45' E 023°25'4 3.8
2016-Nov-25 07:33N 37°48' E 023°28'1211.9
2016-Nov-25 06:33N 37°57' E 023°39'0 0.0
2016-Nov-23 18:03N 37°57' E 023°39'1 2.8
2016-Nov-23 17:33N 37°56' E 023°37'1312.8
2016-Nov-23 16:33N 37°47' E 023°26'2 1.9
2016-Nov-23 15:33N 37°45' E 023°25'1313.0
2016-Nov-23 14:33N 37°55' E 023°36'2 1.9
2016-Nov-23 13:33N 37°56' E 023°37'1313.3
2016-Nov-23 12:33N 37°46' E 023°25'2 1.6
2016-Nov-23 11:33N 37°45' E 023°25'1313.0
2016-Nov-23 10:33N 37°55' E 023°36'1 1.2
2016-Nov-23 09:33N 37°56' E 023°36'1313.3
2016-Nov-23 08:33N 37°46' E 023°25'3 3.4
2016-Nov-23 07:33N 37°48' E 023°29'1211.6
2016-Nov-23 06:33N 37°57' E 023°38'3 0.2
2016-Nov-22 17:33N 37°55' E 023°36'1312.8
2016-Nov-22 16:34N 37°46' E 023°24'1 1.4
2016-Nov-22 15:33N 37°47' E 023°26'1313.3
2016-Nov-22 14:33N 37°56' E 023°37'0 0.4
2016-Nov-22 13:34N 37°56' E 023°37'1 0.3
2016-Nov-22 10:34N 37°55' E 023°36'1 1.0
2016-Nov-22 09:33N 37°56' E 023°37'1313.1
2016-Nov-22 08:34N 37°47' E 023°26'2 1.7
2016-Nov-22 07:34N 37°48' E 023°28'12 1.2
2016-Nov-21 21:33N 37°57' E 023°39'  

Dump ship's entire track history